createdAt,value
2019-04-30T00:05:37.421Z,0.48
2019-04-30T00:15:37.372Z,0.93
2019-04-30T00:25:37.333Z,0.69
2019-04-30T00:35:37.419Z,0.94
2019-04-30T00:45:40.010Z,0.78
2019-04-30T00:55:40.275Z,0.44
2019-04-30T01:05:39.700Z,0.56
2019-04-30T01:15:39.044Z,0.85
2019-04-30T01:25:38.859Z,0.53
2019-04-30T01:35:38.217Z,0.31
2019-04-30T01:45:38.678Z,0.22
2019-04-30T01:55:39.015Z,0.23
2019-04-30T02:05:38.611Z,0.29
2019-04-30T02:15:38.991Z,0.09
2019-04-30T02:25:39.616Z,0.17
2019-04-30T02:35:40.461Z,0.28
2019-04-30T02:45:39.939Z,0.24
2019-04-30T02:55:40.255Z,0.20
2019-04-30T03:05:39.238Z,0.52
2019-04-30T03:15:39.521Z,0.26
2019-04-30T03:25:40.345Z,0.03
2019-04-30T03:35:46.565Z,0.12
2019-04-30T03:45:40.010Z,0.19
2019-04-30T03:55:39.862Z,0.20
2019-04-30T04:05:39.727Z,0.49
2019-04-30T04:15:39.711Z,0.21
2019-04-30T04:25:39.737Z,0.28
2019-04-30T04:35:39.311Z,0.34
2019-04-30T04:55:39.846Z,0.36
2019-04-30T05:05:39.732Z,0.20
2019-04-30T05:15:38.958Z,0.27
2019-04-30T05:25:38.989Z,0.24
2019-04-30T05:35:38.834Z,0.15
2019-04-30T05:45:39.020Z,0.15
2019-04-30T05:55:39.368Z,0.21
2019-04-30T06:05:39.331Z,0.21
2019-04-30T06:15:39.104Z,0.25
2019-04-30T06:25:55.703Z,0.33
2019-04-30T06:35:39.071Z,0.27
2019-04-30T06:45:38.791Z,0.34
2019-04-30T06:55:39.169Z,0.45
2019-04-30T07:05:38.915Z,0.50
2019-04-30T07:15:38.999Z,0.40
2019-04-30T07:25:39.087Z,0.20
2019-04-30T07:35:39.750Z,0.40
2019-04-30T07:45:39.298Z,0.67
2019-04-30T07:55:39.266Z,0.66
2019-04-30T08:05:40.223Z,0.87
2019-04-30T08:15:37.469Z,0.47
2019-04-30T08:25:39.090Z,0.43
2019-04-30T08:35:37.383Z,0.47
2019-04-30T08:45:38.575Z,0.77
2019-04-30T08:55:39.083Z,0.73
2019-04-30T09:05:38.617Z,0.85
2019-04-30T09:15:37.345Z,0.89
2019-04-30T09:25:39.659Z,0.95
2019-04-30T09:35:39.375Z,0.78
2019-04-30T09:45:38.517Z,0.96
2019-04-30T09:55:38.926Z,0.91
2019-04-30T10:05:39.137Z,0.57
2019-04-30T10:15:37.490Z,0.90
2019-04-30T10:25:37.557Z,1.33
2019-04-30T10:35:38.535Z,1.44
2019-04-30T10:45:38.811Z,1.80
2019-04-30T10:55:38.735Z,1.12
2019-04-30T11:05:41.018Z,1.97
2019-04-30T11:15:39.309Z,1.01
2019-04-30T11:25:39.926Z,1.18
2019-04-30T11:35:39.349Z,0.48
2019-04-30T11:45:38.849Z,0.65
2019-04-30T11:55:39.024Z,0.70
2019-04-30T12:05:38.933Z,0.76
2019-04-30T12:15:37.527Z,0.79
2019-04-30T12:25:38.821Z,0.91
2019-04-30T12:35:37.553Z,0.91
2019-04-30T12:45:39.308Z,1.06
2019-04-30T12:55:39.179Z,0.81
2019-04-30T13:05:39.463Z,0.94
2019-04-30T13:15:37.676Z,1.67
2019-04-30T13:25:48.929Z,0.84
2019-04-30T13:35:38.976Z,1.84
2019-04-30T13:45:38.819Z,0.86
2019-04-30T13:55:45.703Z,0.91
2019-04-30T14:05:37.557Z,1.42
2019-04-30T14:15:37.604Z,0.66
2019-04-30T14:25:38.651Z,0.81
2019-04-30T14:35:38.639Z,1.65
2019-04-30T14:45:39.032Z,1.04
2019-04-30T14:55:38.941Z,1.07
2019-04-30T15:05:43.605Z,1.39
2019-04-30T15:15:39.135Z,1.00
2019-04-30T15:25:38.764Z,1.06
2019-04-30T15:35:37.562Z,0.74
2019-04-30T15:45:39.151Z,0.83
2019-04-30T15:55:37.607Z,1.75
2019-04-30T16:05:37.537Z,0.71
2019-04-30T16:15:38.559Z,0.65
2019-04-30T16:25:39.049Z,0.74
2019-04-30T16:35:37.565Z,0.72
2019-04-30T16:45:38.951Z,0.81
2019-04-30T16:55:37.611Z,0.46
2019-04-30T17:05:39.490Z,0.57
2019-04-30T17:15:38.350Z,0.38
2019-04-30T17:25:37.640Z,0.35
2019-04-30T17:35:38.774Z,0.96
2019-04-30T17:45:39.196Z,0.75
2019-04-30T17:55:39.124Z,0.88
2019-04-30T18:05:39.113Z,0.94
2019-04-30T18:15:37.570Z,0.67
2019-04-30T18:25:37.594Z,0.40
2019-04-30T18:35:38.831Z,0.37
2019-04-30T18:45:39.372Z,0.42
2019-04-30T18:55:37.587Z,0.40
2019-04-30T19:05:39.344Z,0.08
2019-04-30T19:16:01.430Z,0.36
2019-04-30T19:25:38.615Z,0.05
2019-04-30T19:35:37.599Z,0.14
2019-04-30T19:45:37.654Z,0.13
2019-04-30T19:55:39.256Z,0.10
2019-04-30T20:05:39.458Z,0.06
2019-04-30T20:15:39.201Z,0.02
2019-04-30T20:25:37.581Z,0.07
2019-04-30T20:35:39.012Z,0.10
2019-04-30T20:45:37.533Z,0.01
2019-04-30T20:55:40.509Z,0.02
2019-04-30T21:05:37.605Z,0.10
2019-04-30T21:15:39.438Z,0.09
2019-04-30T21:25:38.725Z,0.06
2019-04-30T21:35:37.553Z,0.01
2019-04-30T21:45:39.475Z,0.01
2019-04-30T21:55:39.637Z,0.01
2019-04-30T22:05:37.566Z,0.00
2019-04-30T22:15:37.522Z,0.00
2019-04-30T22:25:39.234Z,0.00
2019-04-30T22:35:37.542Z,0.00
2019-04-30T22:45:38.247Z,0.00
2019-04-30T22:55:37.608Z,0.00
2019-04-30T23:05:37.530Z,0.03
2019-04-30T23:15:37.534Z,0.05
2019-04-30T23:25:37.600Z,0.02
2019-04-30T23:35:37.544Z,0.01
2019-04-30T23:45:37.622Z,0.04
2019-04-30T23:55:37.578Z,0.01
